createdAt,value
2019-05-02T00:01:16.819Z,14.45
2019-05-02T00:04:06.868Z,14.43
2019-05-02T00:07:05.642Z,14.40
2019-05-02T00:09:55.632Z,14.37
2019-05-02T00:12:47.169Z,14.38
2019-05-02T00:15:38.227Z,14.37
2019-05-02T00:18:31.929Z,14.37
2019-05-02T00:21:20.748Z,14.36
2019-05-02T00:24:14.087Z,14.35
2019-05-02T00:27:03.995Z,14.33
2019-05-02T00:29:58.535Z,14.32
2019-05-02T00:32:45.295Z,14.29
2019-05-02T00:35:35.410Z,14.29
2019-05-02T00:38:26.530Z,14.28
2019-05-02T00:41:16.810Z,14.29
2019-05-02T00:44:10.929Z,14.26
2019-05-02T00:47:10.670Z,14.24
2019-05-02T00:49:57.976Z,14.20
2019-05-02T00:52:47.749Z,14.15
2019-05-02T00:55:37.957Z,14.13
2019-05-02T00:58:31.967Z,14.09
2019-05-02T01:01:38.506Z,14.04
2019-05-02T01:04:31.199Z,14.01
2019-05-02T01:07:25.656Z,13.95
2019-05-02T01:10:17.391Z,13.91
2019-05-02T01:13:04.520Z,13.85
2019-05-02T01:15:54.597Z,13.81
2019-05-02T01:18:45.248Z,13.75
2019-05-02T01:21:38.805Z,13.71
2019-05-02T01:24:26.613Z,13.67
2019-05-02T01:27:25.767Z,13.62
2019-05-02T01:30:37.135Z,13.62
2019-05-02T01:33:36.879Z,13.56
2019-05-02T01:36:31.940Z,13.48
2019-05-02T01:39:21.680Z,13.40
2019-05-02T01:42:11.594Z,13.35
2019-05-02T01:45:01.917Z,13.33
2019-05-02T01:47:51.492Z,13.29
2019-05-02T01:50:41.467Z,13.25
2019-05-02T01:53:34.423Z,13.22
2019-05-02T01:56:22.923Z,13.19
2019-05-02T01:59:13.021Z,13.16
2019-05-02T02:02:03.178Z,13.14
2019-05-02T02:04:56.815Z,13.11
2019-05-02T02:07:44.774Z,13.09
2019-05-02T02:10:35.383Z,13.07
2019-05-02T02:13:25.239Z,13.04
2019-05-02T02:16:15.111Z,13.00
2019-05-02T02:19:14.539Z,12.94
2019-05-02T02:22:13.946Z,12.91
2019-05-02T02:25:22.116Z,12.85
2019-05-02T02:28:12.301Z,12.81
2019-05-02T02:31:04.981Z,12.73
2019-05-02T02:33:53.882Z,12.69
2019-05-02T02:36:44.002Z,12.65
2019-05-02T02:39:34.229Z,12.65
2019-05-02T02:42:25.118Z,12.63
2019-05-02T02:45:38.719Z,12.61
2019-05-02T02:48:33.686Z,12.59
2019-05-02T02:51:24.521Z,12.58
2019-05-02T02:54:12.935Z,12.59
2019-05-02T02:57:02.430Z,12.57
2019-05-02T02:59:51.415Z,12.55
2019-05-02T03:02:47.647Z,12.55
2019-05-02T03:05:32.953Z,12.54
2019-05-02T03:08:23.389Z,12.54
2019-05-02T03:11:22.755Z,12.54
2019-05-02T03:14:15.508Z,12.52
2019-05-02T03:17:05.262Z,12.54
2019-05-02T03:20:01.542Z,12.51
2019-05-02T03:22:46.828Z,12.50
2019-05-02T03:25:49.981Z,12.46
2019-05-02T03:28:28.345Z,12.44
2019-05-02T03:31:25.120Z,12.41
2019-05-02T03:34:10.144Z,12.39
2019-05-02T03:37:03.486Z,12.34
2019-05-02T03:39:57.435Z,12.28
2019-05-02T03:42:47.635Z,12.25
2019-05-02T03:45:40.307Z,12.19
2019-05-02T03:48:27.991Z,12.14
2019-05-02T03:51:21.692Z,12.10
2019-05-02T03:54:10.398Z,12.04
2019-05-02T03:57:00.508Z,12.00
2019-05-02T03:59:50.778Z,11.96
2019-05-02T04:02:41.870Z,11.92
2019-05-02T04:05:33.905Z,11.88
2019-05-02T04:08:24.279Z,11.84
2019-05-02T04:11:26.215Z,11.83
2019-05-02T04:14:36.577Z,11.80
2019-05-02T04:17:10.505Z,11.78
2019-05-02T04:20:01.559Z,11.76
2019-05-02T04:22:51.694Z,11.76
2019-05-02T04:25:42.336Z,11.76
2019-05-02T04:28:34.214Z,11.79
2019-05-02T04:31:31.683Z,11.78
2019-05-02T04:34:17.952Z,11.79
2019-05-02T04:37:08.118Z,11.81
2019-05-02T04:40:03.037Z,11.83
2019-05-02T04:43:00.871Z,11.86
2019-05-02T04:45:53.076Z,11.91
2019-05-02T04:48:44.311Z,11.96
2019-05-02T04:51:32.029Z,12.00
2019-05-02T04:54:25.903Z,12.07
2019-05-02T04:57:11.743Z,12.15
2019-05-02T05:00:06.222Z,12.22
2019-05-02T05:02:53.465Z,12.31
2019-05-02T05:05:44.037Z,12.44
2019-05-02T05:08:33.320Z,12.53
2019-05-02T05:11:24.962Z,12.68
2019-05-02T05:14:14.859Z,12.80
2019-05-02T05:17:04.507Z,12.96
2019-05-02T05:19:54.775Z,13.06
2019-05-02T05:22:45.979Z,13.15
2019-05-02T05:25:47.901Z,13.24
2019-05-02T05:28:40.469Z,13.38
2019-05-02T05:31:29.985Z,13.47
2019-05-02T05:34:22.765Z,13.59
2019-05-02T05:37:13.377Z,13.73
2019-05-02T05:40:02.819Z,13.86
2019-05-02T05:42:52.616Z,13.99
2019-05-02T05:45:53.333Z,14.10
2019-05-02T05:48:37.146Z,14.21
2019-05-02T05:51:25.326Z,14.33
2019-05-02T05:54:17.848Z,14.42
2019-05-02T05:57:07.765Z,14.50
2019-05-02T05:59:58.400Z,14.63
2019-05-02T06:02:56.063Z,14.71
2019-05-02T06:05:42.290Z,14.80
2019-05-02T06:08:32.135Z,14.91
2019-05-02T06:11:22.449Z,14.99
2019-05-02T06:14:12.906Z,15.08
2019-05-02T06:17:03.026Z,15.16
2019-05-02T06:19:55.400Z,15.24
2019-05-02T06:22:45.170Z,15.28
2019-05-02T06:25:36.737Z,15.36
2019-05-02T06:28:27.169Z,15.41
2019-05-02T06:31:17.300Z,15.41
2019-05-02T06:34:08.336Z,15.42
2019-05-02T06:36:57.791Z,15.46
2019-05-02T06:39:47.475Z,15.48
2019-05-02T06:42:38.065Z,15.49
2019-05-02T06:45:32.271Z,15.56
2019-05-02T06:48:20.205Z,15.61
2019-05-02T06:51:10.924Z,15.59
2019-05-02T06:54:01.875Z,15.60
2019-05-02T06:56:52.166Z,15.60
2019-05-02T06:59:41.719Z,15.59
2019-05-02T07:02:33.525Z,15.57
2019-05-02T07:05:27.187Z,15.58
2019-05-02T07:08:14.860Z,15.60
2019-05-02T07:11:06.273Z,15.62
2019-05-02T07:13:56.035Z,15.63
2019-05-02T07:17:00.725Z,15.67
2019-05-02T07:19:53.923Z,15.74
2019-05-02T07:22:45.741Z,15.85
2019-05-02T07:25:39.071Z,15.94
2019-05-02T07:28:27.217Z,16.02
2019-05-02T07:31:17.322Z,16.07
2019-05-02T07:34:08.025Z,16.23
2019-05-02T07:36:58.706Z,16.35
2019-05-02T07:39:49.092Z,16.50
2019-05-02T07:42:41.955Z,16.63
2019-05-02T07:45:31.277Z,16.67
2019-05-02T07:48:21.003Z,16.77
2019-05-02T07:51:10.983Z,16.80
2019-05-02T07:54:00.496Z,16.87
2019-05-02T07:56:53.425Z,16.97
2019-05-02T07:59:42.328Z,17.01
2019-05-02T08:02:32.238Z,17.02
2019-05-02T08:05:23.896Z,17.01
2019-05-02T08:08:14.078Z,17.05
2019-05-02T08:11:04.219Z,17.23
2019-05-02T08:13:55.750Z,17.39
2019-05-02T08:16:45.913Z,17.58
2019-05-02T08:19:37.586Z,17.77
2019-05-02T08:22:27.328Z,17.80
2019-05-02T08:25:17.360Z,17.86
2019-05-02T08:28:15.857Z,17.94
2019-05-02T08:31:05.220Z,18.09
2019-05-02T08:33:55.481Z,18.15
2019-05-02T08:36:45.255Z,18.31
2019-05-02T08:39:35.492Z,18.45
2019-05-02T08:42:27.678Z,18.58
2019-05-02T08:45:17.817Z,18.72
2019-05-02T08:48:07.807Z,18.91
2019-05-02T08:50:57.854Z,18.99
2019-05-02T08:53:47.566Z,18.92
2019-05-02T08:56:37.580Z,18.87
2019-05-02T08:59:27.344Z,18.92
2019-05-02T09:02:21.157Z,18.99
2019-05-02T09:05:11.000Z,19.10
2019-05-02T09:08:01.145Z,19.28
2019-05-02T09:10:51.271Z,19.42
2019-05-02T09:13:42.203Z,19.53
2019-05-02T09:16:32.840Z,19.63
2019-05-02T09:19:26.387Z,19.73
2019-05-02T09:22:16.746Z,19.92
2019-05-02T09:25:08.511Z,20.05
2019-05-02T09:27:58.135Z,20.37
2019-05-02T09:30:48.393Z,21.09
2019-05-02T09:33:42.491Z,21.85
2019-05-02T09:36:29.867Z,22.65
2019-05-02T09:39:19.838Z,22.91
2019-05-02T09:42:12.357Z,22.92
2019-05-02T09:45:03.125Z,22.85
2019-05-02T09:48:03.485Z,22.76
2019-05-02T09:50:44.628Z,22.65
2019-05-02T09:53:34.592Z,22.62
2019-05-02T09:56:24.656Z,22.61
2019-05-02T09:59:27.698Z,22.63
2019-05-02T10:02:08.792Z,22.53
2019-05-02T10:04:58.307Z,22.66
2019-05-02T10:07:48.775Z,22.81
2019-05-02T10:10:44.267Z,22.97
2019-05-02T10:13:31.969Z,23.02
2019-05-02T10:16:23.598Z,23.07
2019-05-02T10:19:13.690Z,23.19
2019-05-02T10:22:03.329Z,23.32
2019-05-02T10:24:53.150Z,23.41
2019-05-02T10:27:47.199Z,23.61
2019-05-02T10:30:36.118Z,24.21
2019-05-02T10:33:33.639Z,24.66
2019-05-02T10:36:21.848Z,25.04
2019-05-02T10:39:15.532Z,25.68
2019-05-02T10:42:02.246Z,26.63
2019-05-02T10:44:52.200Z,27.71
2019-05-02T10:47:42.362Z,28.25
2019-05-02T10:50:38.045Z,28.97
2019-05-02T10:53:28.158Z,29.76
2019-05-02T10:56:18.085Z,29.77
2019-05-02T10:59:08.100Z,29.85
2019-05-02T11:02:16.021Z,29.98
2019-05-02T11:05:16.832Z,29.86
2019-05-02T11:08:06.202Z,29.86
2019-05-02T11:10:55.853Z,29.96
2019-05-02T11:14:05.742Z,30.01
2019-05-02T11:17:20.361Z,29.83
2019-05-02T11:20:12.440Z,29.35
2019-05-02T11:23:02.344Z,29.51
2019-05-02T11:25:52.960Z,29.29
2019-05-02T11:28:42.995Z,28.98
2019-05-02T11:31:32.728Z,28.78
2019-05-02T11:34:22.911Z,28.29
2019-05-02T11:37:12.960Z,28.35
2019-05-02T11:40:06.193Z,28.92
2019-05-02T11:42:57.313Z,29.45
2019-05-02T11:45:45.578Z,29.50
2019-05-02T11:48:35.523Z,29.51
2019-05-02T11:51:26.540Z,29.33
2019-05-02T11:54:16.491Z,29.12
2019-05-02T11:57:06.082Z,28.94
2019-05-02T11:59:59.332Z,28.83
2019-05-02T12:03:06.203Z,28.70
2019-05-02T12:05:57.455Z,28.49
2019-05-02T12:08:49.345Z,28.33
2019-05-02T12:11:39.191Z,28.08
2019-05-02T12:14:32.791Z,27.69
2019-05-02T12:17:21.773Z,27.23
2019-05-02T12:20:12.119Z,26.65
2019-05-02T12:23:02.183Z,26.23
2019-05-02T12:25:53.839Z,25.78
2019-05-02T12:28:44.123Z,25.41
2019-05-02T12:31:34.354Z,25.10
2019-05-02T12:34:24.102Z,24.87
2019-05-02T12:37:13.375Z,24.55
2019-05-02T12:40:03.164Z,24.31
2019-05-02T12:42:53.374Z,24.17
2019-05-02T12:45:43.630Z,24.05
2019-05-02T12:48:33.532Z,23.99
2019-05-02T12:51:23.435Z,23.93
2019-05-02T12:54:13.404Z,23.80
2019-05-02T12:57:03.530Z,23.75
2019-05-02T12:59:54.164Z,23.73
2019-05-02T13:02:49.233Z,23.74
2019-05-02T13:05:39.647Z,23.86
2019-05-02T13:08:29.484Z,23.92
2019-05-02T13:11:45.635Z,23.82
2019-05-02T13:14:36.485Z,23.71
2019-05-02T13:17:29.322Z,23.55
2019-05-02T13:20:22.936Z,23.38
2019-05-02T13:23:48.403Z,23.36
2019-05-02T13:26:38.675Z,23.24
2019-05-02T13:29:28.546Z,23.01
2019-05-02T13:32:32.602Z,22.97
2019-05-02T13:35:47.639Z,22.86
2019-05-02T13:38:39.931Z,22.74
2019-05-02T13:41:32.064Z,22.57
2019-05-02T13:44:25.569Z,22.50
2019-05-02T13:47:16.799Z,22.46
2019-05-02T13:50:07.647Z,22.45
2019-05-02T13:52:58.117Z,22.51
2019-05-02T13:55:54.802Z,22.40
2019-05-02T13:58:45.045Z,22.33
2019-05-02T14:01:35.449Z,22.34
2019-05-02T14:04:27.661Z,22.35
2019-05-02T14:07:17.607Z,22.38
2019-05-02T14:10:16.136Z,22.49
2019-05-02T14:13:07.448Z,22.56
2019-05-02T14:15:57.462Z,22.71
2019-05-02T14:18:47.181Z,22.82
2019-05-02T14:21:37.216Z,22.79
2019-05-02T14:24:27.340Z,22.64
2019-05-02T14:27:17.451Z,22.47
2019-05-02T14:30:08.977Z,22.37
2019-05-02T14:33:02.354Z,22.35
2019-05-02T14:35:52.762Z,19.53
2019-05-02T14:38:42.358Z,22.34
2019-05-02T14:41:40.485Z,22.33
2019-05-02T14:44:30.389Z,22.30
2019-05-02T14:47:19.505Z,22.27
2019-05-02T14:50:22.794Z,22.31
2019-05-02T14:53:04.172Z,22.33
2019-05-02T14:55:57.576Z,22.29
2019-05-02T14:58:47.504Z,22.27
2019-05-02T15:01:37.474Z,22.26
2019-05-02T15:04:27.735Z,22.27
2019-05-02T15:07:22.094Z,22.27
2019-05-02T15:10:12.651Z,22.29
2019-05-02T15:13:03.909Z,22.28
2019-05-02T15:15:54.064Z,22.29
2019-05-02T15:18:47.673Z,22.34
2019-05-02T15:21:47.158Z,22.37
2019-05-02T15:24:38.055Z,22.39
2019-05-02T15:27:39.376Z,22.38
2019-05-02T15:30:20.361Z,22.38
2019-05-02T15:33:17.056Z,22.39
2019-05-02T15:36:07.438Z,22.39
2019-05-02T15:41:48.889Z,22.35
2019-05-02T15:44:40.101Z,22.31
2019-05-02T15:47:29.606Z,22.24
2019-05-02T15:50:23.815Z,22.24
2019-05-02T15:53:39.158Z,22.21
2019-05-02T15:56:32.283Z,22.18
2019-05-02T15:59:37.442Z,22.14
2019-05-02T16:02:26.683Z,22.11
2019-05-02T16:05:16.283Z,22.06
2019-05-02T16:08:08.922Z,22.03
2019-05-02T16:10:58.646Z,22.03
2019-05-02T16:13:52.408Z,22.01
2019-05-02T16:16:45.212Z,22.00
2019-05-02T16:19:38.268Z,21.94
2019-05-02T16:22:28.218Z,21.88
2019-05-02T16:25:19.996Z,21.85
2019-05-02T16:28:10.143Z,21.84
2019-05-02T16:31:02.465Z,21.82
2019-05-02T16:33:56.056Z,21.76
2019-05-02T16:36:43.956Z,21.69
2019-05-02T16:39:33.894Z,21.69
2019-05-02T16:42:23.850Z,21.70
2019-05-02T16:45:14.548Z,21.72
2019-05-02T16:48:05.063Z,21.73
2019-05-02T16:50:55.047Z,21.74
2019-05-02T16:53:45.713Z,21.72
2019-05-02T16:56:36.972Z,21.69
2019-05-02T16:59:25.954Z,21.65
2019-05-02T17:02:15.654Z,21.62
2019-05-02T17:05:09.404Z,21.55
2019-05-02T17:08:22.534Z,21.51
2019-05-02T17:11:17.194Z,21.48
2019-05-02T17:14:11.953Z,21.38
2019-05-02T17:17:01.398Z,21.30
2019-05-02T17:19:51.641Z,21.21
2019-05-02T17:22:41.467Z,21.12
2019-05-02T17:25:32.573Z,21.07
2019-05-02T17:28:23.968Z,20.97
2019-05-02T17:31:19.202Z,20.88
2019-05-02T17:34:06.713Z,20.78
2019-05-02T17:36:59.054Z,20.68
2019-05-02T17:39:48.282Z,20.58
2019-05-02T17:42:38.917Z,20.49
2019-05-02T17:45:33.377Z,20.38
2019-05-02T17:48:20.038Z,20.26
2019-05-02T17:51:20.400Z,20.17
2019-05-02T17:54:11.997Z,20.13
2019-05-02T17:57:02.339Z,20.04
2019-05-02T17:59:53.214Z,19.96
2019-05-02T18:02:46.953Z,19.91
2019-05-02T18:05:36.320Z,19.86
2019-05-02T18:08:27.090Z,19.83
2019-05-02T18:11:17.276Z,19.77
2019-05-02T18:14:16.197Z,19.73
2019-05-02T18:16:58.984Z,19.68
2019-05-02T18:19:48.781Z,19.66
2019-05-02T18:22:40.033Z,19.62
2019-05-02T18:25:30.789Z,19.57
2019-05-02T18:28:24.533Z,19.53
2019-05-02T18:31:12.726Z,19.45
2019-05-02T18:34:02.764Z,19.38
2019-05-02T18:36:57.474Z,19.32
2019-05-02T18:39:49.737Z,19.28
2019-05-02T18:42:36.042Z,19.21
2019-05-02T18:45:28.778Z,19.14
2019-05-02T18:48:18.458Z,19.04
2019-05-02T18:51:08.063Z,18.97
2019-05-02T18:54:04.541Z,18.90
2019-05-02T18:56:55.038Z,18.80
2019-05-02T18:59:42.690Z,18.71
2019-05-02T19:02:35.427Z,18.59
2019-05-02T19:05:26.476Z,18.49
2019-05-02T19:08:28.277Z,18.37
2019-05-02T19:11:11.971Z,18.24
2019-05-02T19:13:59.846Z,18.15
2019-05-02T19:16:49.766Z,18.06
2019-05-02T19:19:39.611Z,17.99
2019-05-02T19:22:29.865Z,17.91
2019-05-02T19:25:19.825Z,17.83
2019-05-02T19:28:16.118Z,17.75
2019-05-02T19:31:06.983Z,17.66
2019-05-02T19:33:57.145Z,17.59
2019-05-02T19:36:47.319Z,17.51
2019-05-02T19:39:46.905Z,17.43
2019-05-02T19:42:31.138Z,17.36
2019-05-02T19:45:22.284Z,17.31
2019-05-02T19:48:12.356Z,17.25
2019-05-02T19:51:03.321Z,17.19
2019-05-02T19:53:59.665Z,17.12
2019-05-02T19:56:47.456Z,17.06
2019-05-02T19:59:37.096Z,16.99
2019-05-02T20:02:27.243Z,16.92
2019-05-02T20:05:24.077Z,16.85
2019-05-02T20:08:09.776Z,16.80
2019-05-02T20:11:01.932Z,16.73
2019-05-02T20:13:52.966Z,16.67
2019-05-02T20:16:52.685Z,16.64
2019-05-02T20:19:44.033Z,16.60
2019-05-02T20:22:36.220Z,16.58
2019-05-02T20:25:29.910Z,16.54
2019-05-02T20:28:17.204Z,16.50
2019-05-02T20:31:07.142Z,16.43
2019-05-02T20:33:56.880Z,16.31
2019-05-02T20:36:46.891Z,16.24
2019-05-02T20:39:37.141Z,16.20
2019-05-02T20:42:27.176Z,16.16
2019-05-02T20:45:17.912Z,16.15
2019-05-02T20:48:08.422Z,16.12
2019-05-02T20:50:58.956Z,16.10
2019-05-02T20:53:48.883Z,16.07
2019-05-02T20:56:42.649Z,16.01
2019-05-02T20:59:32.703Z,15.98
2019-05-02T21:02:22.644Z,15.92
2019-05-02T21:05:22.145Z,15.89
2019-05-02T21:08:32.534Z,15.87
2019-05-02T21:11:24.232Z,15.84
2019-05-02T21:14:14.269Z,15.81
2019-05-02T21:17:04.589Z,15.80
2019-05-02T21:19:54.687Z,15.82
2019-05-02T21:22:44.987Z,15.83
2019-05-02T21:25:35.058Z,15.84
2019-05-02T21:28:24.842Z,15.85
2019-05-02T21:31:14.896Z,15.86
2019-05-02T21:34:07.278Z,15.85
2019-05-02T21:36:56.465Z,15.82
2019-05-02T21:39:46.332Z,15.79
2019-05-02T21:42:36.381Z,15.76
2019-05-02T21:45:26.293Z,15.72
2019-05-02T21:48:16.010Z,15.73
2019-05-02T21:51:33.880Z,15.71
2019-05-02T21:54:48.324Z,15.70
2019-05-02T21:57:38.190Z,15.67
2019-05-02T22:00:48.189Z,15.63
2019-05-02T22:03:39.522Z,15.60
2019-05-02T22:06:29.825Z,15.57
2019-05-02T22:09:22.846Z,15.53
2019-05-02T22:12:12.514Z,15.51
2019-05-02T22:15:02.413Z,15.48
2019-05-02T22:17:52.466Z,15.44
2019-05-02T22:20:42.818Z,15.43
2019-05-02T22:23:33.964Z,15.42
2019-05-02T22:26:24.120Z,15.40
2019-05-02T22:29:14.091Z,15.38
2019-05-02T22:32:04.145Z,15.37
2019-05-02T22:34:55.924Z,15.33
2019-05-02T22:37:47.162Z,15.32
2019-05-02T22:40:37.642Z,15.33
2019-05-02T22:43:28.322Z,15.35
2019-05-02T22:46:37.334Z,15.36
2019-05-02T22:49:27.254Z,15.39
2019-05-02T22:52:17.492Z,15.39
2019-05-02T22:55:08.895Z,15.40
2019-05-02T22:57:58.693Z,15.40
2019-05-02T23:00:49.827Z,15.39
2019-05-02T23:03:39.587Z,15.41
2019-05-02T23:06:29.766Z,15.42
2019-05-02T23:09:21.879Z,15.46
2019-05-02T23:12:13.175Z,15.50
2019-05-02T23:15:03.550Z,15.54
2019-05-02T23:17:53.775Z,15.56
2019-05-02T23:20:44.098Z,15.57
2019-05-02T23:23:34.396Z,15.59
2019-05-02T23:26:46.950Z,15.57
2019-05-02T23:29:37.342Z,15.59
2019-05-02T23:32:28.228Z,15.63
2019-05-02T23:35:18.335Z,15.68
2019-05-02T23:38:08.841Z,15.71
2019-05-02T23:40:59.037Z,15.74
2019-05-02T23:43:52.350Z,15.72
2019-05-02T23:46:42.515Z,15.76
2019-05-02T23:49:32.497Z,15.76
2019-05-02T23:52:22.551Z,15.77
2019-05-02T23:55:13.218Z,15.81
2019-05-02T23:58:03.293Z,15.78
